Anderson, Alaska
Current Conditions -  °F | °C
As of 2:11 PM on Wednesday 26 Nov 2014 (Local Time) from PANN Reporting Station
Broken Clouds Broken Clouds  
Wind Chill: -4°   Ceiling: 300
Heat Index: -4°   Visibility: 10mi
Dew Point: -10°   Wind: 0mph
Humidity: 76%   Direction: NA
Pressure: 30.51"   Gusts: NA
Location:  64.34°N, 149.19°W
Report Text: PANN 262311Z AUTO 00000KT 10SM BKN003 BKN007 M20/M23 A3051 RMK AO2 T12001233 TSNO
Loading
Personal Weather Stations






























Interactive Weather Map New forecast layout! Learn more

10-Day Weather Forecast

Advertisements
Track Severe Weather on mobile